Time,TemperatureF,DewpointF,PressureIn,WindDirection,WindDirectionDegrees,WindSpeedMPH,WindSpeedGustMPH,Humidity,HourlyPrecipIn,Conditions,Clouds,dailyrainin,SoftwareType,DateUTC
2013-05-20 00:03:00,78.1,64.5,29.80,SW,231,7.6,8.3,63,0.00,,CLR,0.00,VWS V14.01,2013-05-20 05:03:00,
2013-05-20 00:08:00,78.1,64.5,29.80,SE,140,4.0,11.0,63,0.00,,CLR,0.00,VWS V14.01,2013-05-20 05:08:00,
2013-05-20 00:13:00,77.9,64.3,29.80,South,173,8.1,11.0,63,0.00,,CLR,0.00,VWS V14.01,2013-05-20 05:13:00,
2013-05-20 00:18:00,77.9,64.3,29.78,SSW,202,4.9,10.5,63,0.00,,CLR,0.00,VWS V14.01,2013-05-20 05:18:00,
2013-05-20 00:23:00,77.7,64.1,29.78,South,180,3.1,10.5,63,0.00,,CLR,0.00,VWS V14.01,2013-05-20 05:23:00,
2013-05-20 00:28:00,77.7,64.1,29.78,SSW,207,7.6,8.1,63,0.00,,CLR,0.00,VWS V14.01,2013-05-20 05:28:00,
2013-05-20 00:33:00,77.7,64.1,29.78,ESE,106,3.6,10.1,63,0.00,,CLR,0.00,VWS V14.01,2013-05-20 05:33:00,
2013-05-20 00:38:00,77.5,64.0,29.78,SSW,195,2.7,12.3,63,0.00,,CLR,0.00,VWS V14.01,2013-05-20 05:38:00,
2013-05-20 00:43:00,77.4,63.8,29.78,South,173,6.3,6.3,63,0.00,,CLR,0.00,VWS V14.01,2013-05-20 05:43:00,
2013-05-20 00:48:00,77.4,63.8,29.78,SSW,203,5.4,10.5,63,0.00,,CLR,0.00,VWS V14.01,2013-05-20 05:48:00,
2013-05-20 00:53:00,77.4,63.8,29.78,WNW,296,3.6,8.1,63,0.00,,CLR,0.00,VWS V14.01,2013-05-20 05:53:00,
2013-05-20 00:59:00,77.4,63.8,29.78,SSE,159,2.7,8.1,63,0.00,,CLR,0.00,VWS V14.01,2013-05-20 05:59:00,
2013-05-20 01:04:00,77.2,63.6,29.78,SE,145,4.9,7.6,63,0.00,,CLR,0.00,VWS V14.01,2013-05-20 06:04:00,
2013-05-20 01:09:00,77.0,63.5,29.78,SSW,192,5.8,8.1,63,0.00,,CLR,0.00,VWS V14.01,2013-05-20 06:09:00,
2013-05-20 01:14:00,77.2,63.6,29.78,SSE,157,10.1,10.1,63,0.00,,CLR,0.00,VWS V14.01,2013-05-20 06:14:00,
2013-05-20 01:19:00,77.2,63.6,29.78,SE,125,2.7,11.0,63,0.00,,CLR,0.00,VWS V14.01,2013-05-20 06:19:00,
2013-05-20 01:24:00,76.8,63.3,29.78,SW,236,5.8,8.1,63,0.00,,CLR,0.00,VWS V14.01,2013-05-20 06:24:00,
2013-05-20 01:29:00,76.8,63.3,29.78,South,169,8.7,9.6,63,0.00,,CLR,0.00,VWS V14.01,2013-05-20 06:29:00,
2013-05-20 01:34:00,76.6,63.1,29.78,SSW,192,4.0,5.8,63,0.00,,CLR,0.00,VWS V14.01,2013-05-20 06:34:00,
2013-05-20 01:39:00,76.6,63.1,29.78,South,181,6.3,6.3,63,0.00,,CLR,0.00,VWS V14.01,2013-05-20 06:39:00,
2013-05-20 01:44:00,76.5,62.9,29.78,SW,233,4.9,8.7,63,0.00,,CLR,0.00,VWS V14.01,2013-05-20 06:44:00,
2013-05-20 01:49:00,76.3,62.8,29.75,SW,215,4.0,10.1,63,0.00,,CLR,0.00,VWS V14.01,2013-05-20 06:49:00,
2013-05-20 01:54:00,76.1,62.6,29.75,South,181,5.8,9.6,63,0.00,,CLR,0.00,VWS V14.01,2013-05-20 06:54:00,
2013-05-20 02:00:00,76.1,62.6,29.75,SSW,213,4.0,8.3,63,0.00,,CLR,0.00,VWS V14.01,2013-05-20 07:00:00,
2013-05-20 02:05:00,75.9,62.4,29.75,SSW,204,8.3,8.3,63,0.00,,CLR,0.00,VWS V14.01,2013-05-20 07:05:00,
2013-05-20 02:10:00,75.9,62.4,29.75,SSW,212,5.4,8.3,63,0.00,,CLR,0.00,VWS V14.01,2013-05-20 07:10:00,
2013-05-20 02:15:00,75.9,62.4,29.75,SSE,156,2.7,4.0,63,0.00,,CLR,0.00,VWS V14.01,2013-05-20 07:15:00,
2013-05-20 02:20:00,75.9,62.4,29.75,SSE,155,5.4,5.4,63,0.00,,CLR,0.00,VWS V14.01,2013-05-20 07:20:00,
2013-05-20 02:25:00,76.1,62.6,29.75,SSE,163,7.6,7.6,63,0.00,,CLR,0.00,VWS V14.01,2013-05-20 07:25:00,
2013-05-20 02:30:00,76.1,62.6,29.75,SW,222,6.3,7.6,63,0.00,,CLR,0.00,VWS V14.01,2013-05-20 07:30:00,
2013-05-20 02:35:00,75.9,62.4,29.75,SSW,205,3.6,8.1,63,0.00,,CLR,0.00,VWS V14.01,2013-05-20 07:35:00,
2013-05-20 02:40:00,75.7,62.3,29.75,SW,232,3.1,5.4,63,0.00,,CLR,0.00,VWS V14.01,2013-05-20 07:40:00,
2013-05-20 02:45:00,75.7,62.3,29.75,SSE,156,3.1,4.0,63,0.00,,CLR,0.00,VWS V14.01,2013-05-20 07:45:00,
2013-05-20 02:50:00,75.6,62.1,29.75,SSE,147,3.1,4.9,63,0.00,,CLR,0.00,VWS V14.01,2013-05-20 07:50:00,
2013-05-20 02:56:00,75.4,61.9,29.75,South,186,6.3,6.3,63,0.00,,CLR,0.00,VWS V14.01,2013-05-20 07:56:00,
2013-05-20 03:01:00,75.2,61.8,29.75,South,175,3.1,6.3,63,0.00,,CLR,0.00,VWS V14.01,2013-05-20 08:01:00,
2013-05-20 03:06:00,75.4,61.9,29.75,SSW,203,4.9,7.6,63,0.00,,CLR,0.00,VWS V14.01,2013-05-20 08:06:00,
2013-05-20 03:11:00,74.8,61.4,29.75,SW,218,6.3,8.7,63,0.00,,CLR,0.00,VWS V14.01,2013-05-20 08:11:00,
2013-05-20 03:16:00,73.2,61.4,29.80,WSW,250,4.0,6.3,66,0.00,,CLR,0.00,VWS V14.01,2013-05-20 08:16:00,
2013-05-20 03:21:00,71.1,59.3,29.80,West,270,2.2,8.1,66,0.00,,CLR,0.00,VWS V14.01,2013-05-20 08:21:00,
2013-05-20 03:26:00,69.3,59.1,29.80,WNW,300,4.0,4.0,70,0.00,,SCT075,0.00,VWS V14.01,2013-05-20 08:26:00,
2013-05-20 03:31:00,68.2,58.0,29.80,West,278,0.0,0.0,70,0.00,,SCT075,0.00,VWS V14.01,2013-05-20 08:31:00,
2013-05-20 03:36:00,67.6,57.5,29.80,SSE,152,3.6,3.6,70,0.00,,SCT075,0.00,VWS V14.01,2013-05-20 08:36:00,
2013-05-20 03:41:00,67.1,57.0,29.80,NW,311,0.0,0.0,70,0.00,,SCT075,0.00,VWS V14.01,2013-05-20 08:41:00,
2013-05-20 03:46:00,66.6,56.5,29.80,NW,310,0.0,0.0,70,0.00,,OVC070,0.00,VWS V14.01,2013-05-20 08:46:00,
2013-05-20 03:52:00,66.2,56.1,29.80,NW,310,0.0,0.0,70,0.00,,OVC070,0.00,VWS V14.01,2013-05-20 08:52:00,
2013-05-20 03:57:00,66.0,56.0,29.80,NW,310,0.0,0.0,70,0.00,,OVC070,0.00,VWS V14.01,2013-05-20 08:57:00,
2013-05-20 04:02:00,65.8,55.8,29.80,NW,310,0.0,0.0,70,0.00,,-RA,0.00,VWS V14.01,2013-05-20 09:02:00,
2013-05-20 04:07:00,65.8,59.7,29.80,NW,310,0.0,0.0,80,0.00,,-RA,0.00,VWS V14.01,2013-05-20 09:07:00,
2013-05-20 04:12:00,65.7,59.5,29.80,NW,310,0.0,0.0,80,0.00,,-RA,0.00,VWS V14.01,2013-05-20 09:12:00,
2013-05-20 04:17:00,65.7,59.5,29.78,NW,310,0.0,0.0,80,0.00,,-RA,0.00,VWS V14.01,2013-05-20 09:17:00,
2013-05-20 04:22:00,65.8,59.7,29.78,NW,310,0.0,0.0,80,0.00,,OVC080,0.00,VWS V14.01,2013-05-20 09:22:00,
2013-05-20 04:27:00,65.8,59.7,29.78,NW,310,0.0,0.0,80,0.00,,OVC080,0.00,VWS V14.01,2013-05-20 09:27:00,
2013-05-20 04:32:00,66.0,59.9,29.78,SW,221,0.0,0.0,80,0.00,,OVC080,0.00,VWS V14.01,2013-05-20 09:32:00,
2013-05-20 04:37:00,66.2,61.2,29.78,SW,224,0.0,0.0,84,0.00,,OVC080,0.00,VWS V14.01,2013-05-20 09:37:00,
2013-05-20 04:43:00,66.4,62.6,29.78,SSW,197,2.2,4.9,88,0.00,,OVC050,0.00,VWS V14.01,2013-05-20 09:43:00,
2013-05-20 04:48:00,66.6,63.9,29.83,SSW,193,4.0,5.8,91,0.00,,OVC050,0.00,VWS V14.01,2013-05-20 09:48:00,
2013-05-20 04:53:00,66.7,65.1,29.83,WSW,245,4.9,9.6,94,0.00,,OVC050,0.00,VWS V14.01,2013-05-20 09:53:00,
2013-05-20 04:58:00,66.6,63.9,29.83,SW,219,2.7,5.4,91,0.00,,OVC050,0.00,VWS V14.01,2013-05-20 09:58:00,
2013-05-20 05:03:00,66.2,62.4,29.86,SSW,197,0.0,5.8,88,0.00,,-RA,0.00,VWS V14.01,2013-05-20 10:03:00,
2013-05-20 05:08:00,66.0,62.2,29.86,SSE,152,0.0,6.3,88,0.00,,-RA,0.00,VWS V14.01,2013-05-20 10:08:00,
2013-05-20 05:13:00,65.8,62.0,29.86,SSW,196,4.0,4.0,88,0.00,,-RA,0.00,VWS V14.01,2013-05-20 10:13:00,
2013-05-20 05:18:00,65.8,63.1,29.86,SSW,203,3.6,6.3,91,0.00,,-RA,0.00,VWS V14.01,2013-05-20 10:18:00,
2013-05-20 05:23:00,65.7,63.0,29.86,SW,221,5.4,5.4,91,0.00,,SCT120,0.00,VWS V14.01,2013-05-20 10:23:00,
2013-05-20 05:28:00,65.5,62.8,29.86,ESE,112,5.8,5.8,91,0.00,,SCT120,0.00,VWS V14.01,2013-05-20 10:28:00,
2013-05-20 05:33:00,65.3,62.6,29.83,SSW,206,0.0,5.4,91,0.00,,SCT120,0.00,VWS V14.01,2013-05-20 10:33:00,
2013-05-20 05:38:00,65.1,62.4,29.83,South,176,6.3,6.3,91,0.00,,SCT120,0.00,VWS V14.01,2013-05-20 10:38:00,
2013-05-20 05:44:00,64.9,62.2,29.83,SW,217,2.7,7.6,91,0.00,,BKN110,0.00,VWS V14.01,2013-05-20 10:44:00,
2013-05-20 05:49:00,64.9,63.3,29.86,SSW,198,0.0,4.0,94,0.00,,BKN110,0.00,VWS V14.01,2013-05-20 10:49:00,
2013-05-20 05:54:00,64.8,63.2,29.86,SSW,213,4.0,4.9,94,0.00,,BKN110,0.00,VWS V14.01,2013-05-20 10:54:00,
2013-05-20 05:59:00,64.6,63.0,29.86,South,182,3.1,5.8,94,0.00,,BKN110,0.00,VWS V14.01,2013-05-20 10:59:00,
2013-05-20 06:04:00,64.4,62.8,29.83,SW,220,3.6,4.9,94,0.04,,BKN110,0.04,VWS V14.01,2013-05-20 11:04:00,
2013-05-20 06:09:00,64.4,64.4,29.83,South,174,2.7,5.4,100,0.04,,BKN110,0.04,VWS V14.01,2013-05-20 11:09:00,
2013-05-20 06:14:00,64.4,64.4,29.83,South,172,2.7,5.4,100,0.04,,BKN110,0.04,VWS V14.01,2013-05-20 11:14:00,
2013-05-20 06:19:00,64.4,64.4,29.83,South,180,5.8,6.3,100,0.04,,BKN110,0.04,VWS V14.01,2013-05-20 11:19:00,
2013-05-20 06:24:00,64.4,64.4,29.83,South,183,3.6,5.4,100,0.04,,SCT090,0.04,VWS V14.01,2013-05-20 11:24:00,
2013-05-20 06:29:00,64.4,64.4,29.83,SSW,201,4.9,6.3,100,0.04,,SCT090,0.04,VWS V14.01,2013-05-20 11:29:00,
2013-05-20 06:34:00,64.2,64.2,29.80,SSW,207,0.0,4.9,100,0.04,,SCT090,0.04,VWS V14.01,2013-05-20 11:34:00,
2013-05-20 06:39:00,64.2,64.2,29.80,South,179,4.0,4.0,100,0.08,,SCT090,0.08,VWS V14.01,2013-05-20 11:39:00,
2013-05-20 06:45:00,64.2,64.2,29.78,SSE,157,3.1,7.2,100,0.08,,SCT090,0.08,VWS V14.01,2013-05-20 11:45:00,
2013-05-20 06:50:00,64.2,64.2,29.78,SSW,206,10.1,10.1,100,0.08,,SCT090,0.08,VWS V14.01,2013-05-20 11:50:00,
2013-05-20 06:55:00,64.8,64.8,29.78,SSE,149,8.1,10.1,100,0.08,,SCT090,0.08,VWS V14.01,2013-05-20 11:55:00,
2013-05-20 07:00:00,64.9,64.9,29.72,SSE,147,4.0,8.1,100,0.08,,SCT090,0.08,VWS V14.01,2013-05-20 12:00:00,
2013-05-20 07:05:00,64.8,64.8,29.72,SSE,156,5.4,8.3,100,0.08,,CLR,0.08,VWS V14.01,2013-05-20 12:05:00,
2013-05-20 07:10:00,64.8,64.8,29.72,SSE,154,8.3,11.9,100,0.04,,CLR,0.08,VWS V14.01,2013-05-20 12:10:00,
2013-05-20 07:15:00,65.7,63.0,29.72,SSE,150,9.6,12.8,91,0.04,,CLR,0.08,VWS V14.01,2013-05-20 12:15:00,
2013-05-20 07:20:00,66.9,59.5,29.72,South,176,7.6,17.0,77,0.04,,CLR,0.08,VWS V14.01,2013-05-20 12:20:00,
2013-05-20 07:25:00,68.5,58.4,29.72,SE,134,7.6,11.0,70,0.04,,BKN090,0.08,VWS V14.01,2013-05-20 12:25:00,
2013-05-20 07:30:00,68.9,58.7,29.75,SSE,153,7.6,10.5,70,0.04,,BKN090,0.08,VWS V14.01,2013-05-20 12:30:00,
2013-05-20 07:35:00,69.3,59.1,29.75,SW,224,8.1,10.1,70,0.04,,BKN090,0.08,VWS V14.01,2013-05-20 12:35:00,
2013-05-20 07:40:00,69.4,59.2,29.75,SSE,155,5.4,5.4,70,0.00,,BKN090,0.08,VWS V14.01,2013-05-20 12:40:00,
2013-05-20 07:45:00,69.1,58.9,29.75,South,181,4.0,4.9,70,0.00,,BKN100,0.08,VWS V14.01,2013-05-20 12:45:00,
2013-05-20 07:50:00,68.9,58.7,29.75,SSW,211,2.7,3.6,70,0.00,,BKN100,0.08,VWS V14.01,2013-05-20 12:50:00,
2013-05-20 07:55:00,68.7,58.5,29.75,SSW,196,5.8,5.8,70,0.00,,BKN100,0.08,VWS V14.01,2013-05-20 12:55:00,
2013-05-20 08:00:00,68.7,58.5,29.78,West,276,3.1,5.4,70,0.00,,OVC090,0.08,VWS V14.01,2013-05-20 13:00:00,
2013-05-20 08:05:00,68.9,58.7,29.78,SSE,160,6.3,6.3,70,0.00,,OVC090,0.08,VWS V14.01,2013-05-20 13:05:00,
2013-05-20 08:11:00,69.1,58.9,29.78,South,181,6.3,10.5,70,0.00,,OVC090,0.08,VWS V14.01,2013-05-20 13:11:00,
2013-05-20 08:16:00,69.3,59.1,29.78,SSW,201,4.0,5.8,70,0.00,,OVC090,0.08,VWS V14.01,2013-05-20 13:16:00,
2013-05-20 08:21:00,69.3,59.1,29.78,SSW,197,8.1,8.1,70,0.00,,OVC100,0.08,VWS V14.01,2013-05-20 13:21:00,
2013-05-20 08:26:00,69.4,59.2,29.78,SSW,210,5.8,10.1,70,0.00,,OVC100,0.08,VWS V14.01,2013-05-20 13:26:00,
2013-05-20 08:31:00,69.3,59.1,29.78,SSW,199,4.0,9.6,70,0.00,,OVC100,0.08,VWS V14.01,2013-05-20 13:31:00,
2013-05-20 08:36:00,69.1,58.9,29.78,SSW,213,5.8,8.1,70,0.00,,OVC100,0.08,VWS V14.01,2013-05-20 13:36:00,
2013-05-20 08:41:00,68.9,58.7,29.78,NNE,20,5.4,10.1,70,0.00,,-RA,0.08,VWS V14.01,2013-05-20 13:41:00,
2013-05-20 08:46:00,69.3,59.1,29.78,SSW,208,12.3,12.3,70,0.00,,-RA,0.08,VWS V14.01,2013-05-20 13:46:00,
2013-05-20 08:51:00,69.8,58.2,29.78,SSW,207,8.1,8.7,66,0.00,,-RA,0.08,VWS V14.01,2013-05-20 13:51:00,
2013-05-20 08:56:00,70.0,58.3,29.78,SSE,153,4.0,8.1,66,0.00,,-RA,0.08,VWS V14.01,2013-05-20 13:56:00,
2013-05-20 09:02:00,70.3,58.7,29.75,South,175,6.3,8.7,66,0.00,,-RA,0.08,VWS V14.01,2013-05-20 14:02:00,
2013-05-20 09:07:00,70.7,59.0,29.75,West,274,8.3,8.7,66,0.00,,-RA,0.08,VWS V14.01,2013-05-20 14:07:00,
2013-05-20 09:12:00,71.2,59.5,29.75,SSE,156,6.3,10.1,66,0.00,,-RA,0.08,VWS V14.01,2013-05-20 14:12:00,
2013-05-20 09:17:00,71.4,59.7,29.75,South,170,4.0,12.3,66,0.00,,-RA,0.08,VWS V14.01,2013-05-20 14:17:00,
2013-05-20 09:22:00,71.8,60.0,29.75,SW,218,7.6,8.7,66,0.00,,-RA,0.08,VWS V14.01,2013-05-20 14:22:00,
2013-05-20 09:27:00,72.0,60.2,29.75,SSW,200,11.4,11.4,66,0.00,,-RA,0.08,VWS V14.01,2013-05-20 14:27:00,
2013-05-20 09:32:00,71.8,60.0,29.78,SE,143,6.3,13.2,66,0.00,,SCT120,0.08,VWS V14.01,2013-05-20 14:32:00,
2013-05-20 09:37:00,71.2,59.5,29.78,SSW,201,6.3,13.2,66,0.00,,SCT120,0.08,VWS V14.01,2013-05-20 14:37:00,
2013-05-20 09:42:00,71.6,59.9,29.78,South,178,5.8,8.7,66,0.00,,SCT120,0.08,VWS V14.01,2013-05-20 14:42:00,
2013-05-20 09:47:00,72.1,60.4,29.78,SSW,192,5.8,11.9,66,0.00,,SCT120,0.08,VWS V14.01,2013-05-20 14:47:00,
2013-05-20 09:52:00,72.7,60.9,29.78,SSW,199,4.9,11.0,66,0.00,,SCT120,0.08,VWS V14.01,2013-05-20 14:52:00,
2013-05-20 09:58:00,73.0,61.2,29.78,South,170,4.0,12.8,66,0.00,,SCT120,0.08,VWS V14.01,2013-05-20 14:58:00,
2013-05-20 10:03:00,73.0,61.2,29.78,SSW,196,8.7,12.8,66,0.00,,BKN120,0.08,VWS V14.01,2013-05-20 15:03:00,
2013-05-20 10:08:00,72.9,61.1,29.78,South,169,8.1,9.6,66,0.00,,BKN120,0.08,VWS V14.01,2013-05-20 15:08:00,
2013-05-20 10:13:00,72.1,60.4,29.78,SW,234,11.0,14.1,66,0.00,,BKN120,0.08,VWS V14.01,2013-05-20 15:13:00,
2013-05-20 10:18:00,72.3,60.5,29.78,SSW,194,4.9,8.1,66,0.00,,BKN120,0.08,VWS V14.01,2013-05-20 15:18:00,
2013-05-20 10:23:00,73.2,61.4,29.78,SE,146,6.3,8.1,66,0.00,,SCT120,0.08,VWS V14.01,2013-05-20 15:23:00,
2013-05-20 10:28:00,73.8,60.4,29.78,SE,136,4.0,11.9,63,0.00,,SCT120,0.08,VWS V14.01,2013-05-20 15:28:00,
2013-05-20 10:33:00,74.3,60.9,29.78,SE,146,11.0,11.0,63,0.00,,SCT120,0.08,VWS V14.01,2013-05-20 15:33:00,
2013-05-20 10:38:00,74.7,61.2,29.78,WSW,246,5.4,10.1,63,0.00,,SCT120,0.08,VWS V14.01,2013-05-20 15:38:00,
2013-05-20 10:43:00,75.0,61.6,29.78,SW,217,4.9,10.5,63,0.00,,SCT120,0.08,VWS V14.01,2013-05-20 15:43:00,
2013-05-20 10:48:00,75.4,61.9,29.80,South,180,4.9,8.3,63,0.00,,CLR,0.08,VWS V14.01,2013-05-20 15:48:00,
2013-05-20 10:54:00,75.9,62.4,29.80,SSW,209,3.6,8.1,63,0.00,,CLR,0.08,VWS V14.01,2013-05-20 15:54:00,
2013-05-20 10:59:00,76.6,63.1,29.80,SSE,151,7.6,11.9,63,0.00,,CLR,0.08,VWS V14.01,2013-05-20 15:59:00,
2013-05-20 11:04:00,76.8,63.3,29.80,SSW,204,6.3,10.1,63,0.00,,CLR,0.08,VWS V14.01,2013-05-20 16:04:00,
2013-05-20 11:09:00,76.8,63.3,29.80,SE,135,5.4,10.5,63,0.00,,CLR,0.08,VWS V14.01,2013-05-20 16:09:00,
2013-05-20 11:14:00,77.0,63.5,29.80,South,183,6.3,11.0,63,0.00,,CLR,0.08,VWS V14.01,2013-05-20 16:14:00,
2013-05-20 11:19:00,77.4,63.8,29.80,South,181,3.6,10.5,63,0.00,,CLR,0.08,VWS V14.01,2013-05-20 16:19:00,
2013-05-20 11:24:00,77.5,64.0,29.80,SE,143,4.0,11.0,63,0.00,,CLR,0.08,VWS V14.01,2013-05-20 16:24:00,
2013-05-20 11:29:00,78.6,65.0,29.80,WSW,251,5.8,10.1,63,0.00,,CLR,0.08,VWS V14.01,2013-05-20 16:29:00,
2013-05-20 11:34:00,78.6,65.0,29.80,SW,233,4.0,16.8,63,0.00,,CLR,0.08,VWS V14.01,2013-05-20 16:34:00,
2013-05-20 11:39:00,78.4,64.8,29.80,WSW,244,5.8,9.6,63,0.00,,CLR,0.08,VWS V14.01,2013-05-20 16:39:00,
2013-05-20 11:44:00,78.8,63.5,29.80,South,188,4.9,10.5,60,0.00,,CLR,0.08,VWS V14.01,2013-05-20 16:44:00,
2013-05-20 11:50:00,78.8,63.5,29.80,SW,224,0.0,10.1,60,0.00,,CLR,0.08,VWS V14.01,2013-05-20 16:50:00,
2013-05-20 11:55:00,79.5,64.2,29.80,SW,218,6.7,15.0,60,0.00,,CLR,0.08,VWS V14.01,2013-05-20 16:55:00,
2013-05-20 12:00:00,79.9,64.5,29.80,SSW,199,6.3,10.1,60,0.00,,CLR,0.08,VWS V14.01,2013-05-20 17:00:00,
2013-05-20 12:05:00,80.2,64.9,29.80,SSW,201,6.3,6.3,60,0.00,,CLR,0.08,VWS V14.01,2013-05-20 17:05:00,
2013-05-20 12:10:00,80.2,64.9,29.80,WSW,252,3.6,5.4,60,0.00,,CLR,0.08,VWS V14.01,2013-05-20 17:10:00,
2013-05-20 12:15:00,80.1,64.7,29.80,South,172,5.8,5.8,60,0.00,,CLR,0.08,VWS V14.01,2013-05-20 17:15:00,
2013-05-20 12:20:00,80.6,65.2,29.80,SSE,165,7.6,8.3,60,0.00,,CLR,0.08,VWS V14.01,2013-05-20 17:20:00,
2013-05-20 12:25:00,81.0,65.5,29.80,SW,222,5.8,9.6,60,0.00,,CLR,0.08,VWS V14.01,2013-05-20 17:25:00,
2013-05-20 12:30:00,81.0,65.5,29.80,SSW,207,4.9,4.9,60,0.00,,CLR,0.08,VWS V14.01,2013-05-20 17:30:00,
2013-05-20 12:35:00,81.0,65.5,29.80,SW,221,6.3,6.3,60,0.00,,CLR,0.08,VWS V14.01,2013-05-20 17:35:00,
2013-05-20 12:40:00,81.7,66.2,29.80,SW,224,7.6,7.6,60,0.00,,SCT110,0.08,VWS V14.01,2013-05-20 17:40:00,
2013-05-20 12:46:00,82.0,66.6,29.80,SSW,193,7.6,7.6,60,0.00,,SCT110,0.08,VWS V14.01,2013-05-20 17:46:00,
2013-05-20 12:51:00,82.0,66.6,29.80,SSW,198,8.1,8.1,60,0.00,,SCT110,0.08,VWS V14.01,2013-05-20 17:51:00,
2013-05-20 12:56:00,82.2,66.7,29.80,SW,235,8.1,11.0,60,0.00,,SCT110,0.08,VWS V14.01,2013-05-20 17:56:00,
2013-05-20 13:01:00,82.2,66.7,29.80,SSE,168,5.8,8.7,60,0.00,,SCT110,0.08,VWS V14.01,2013-05-20 18:01:00,
2013-05-20 13:06:00,82.4,65.1,29.80,South,186,5.8,15.0,56,0.00,,SCT110,0.08,VWS V14.01,2013-05-20 18:06:00,
2013-05-20 13:11:00,82.8,65.5,29.80,SSW,195,6.3,7.6,56,0.00,,SCT110,0.08,VWS V14.01,2013-05-20 18:11:00,
2013-05-20 13:16:00,82.9,65.7,29.83,ENE,62,6.7,6.7,56,0.00,,SCT110,0.08,VWS V14.01,2013-05-20 18:16:00,
2013-05-20 13:21:00,83.1,65.8,29.83,South,172,5.4,7.2,56,0.00,,SCT110,0.08,VWS V14.01,2013-05-20 18:21:00,
2013-05-20 13:26:00,83.1,65.8,29.83,SE,144,7.6,8.1,56,0.00,,CLR,0.08,VWS V14.01,2013-05-20 18:26:00,
2013-05-20 13:31:00,83.3,66.0,29.83,SE,142,3.6,6.3,56,0.00,,CLR,0.08,VWS V14.01,2013-05-20 18:31:00,
2013-05-20 13:36:00,83.5,66.2,29.83,South,173,8.3,8.7,56,0.00,,CLR,0.08,VWS V14.01,2013-05-20 18:36:00,
2013-05-20 13:41:00,83.5,66.2,29.83,SSE,160,6.3,8.3,56,0.00,,CLR,0.08,VWS V14.01,2013-05-20 18:41:00,
2013-05-20 13:47:00,83.5,66.2,29.83,East,100,5.4,8.3,56,0.00,,CLR,0.08,VWS V14.01,2013-05-20 18:47:00,
2013-05-20 13:52:00,84.0,66.7,29.83,SSW,193,6.3,8.7,56,0.00,,CLR,0.08,VWS V14.01,2013-05-20 18:52:00,
2013-05-20 13:57:00,84.0,66.7,29.83,SSW,209,0.0,8.1,56,0.00,,CLR,0.08,VWS V14.01,2013-05-20 18:57:00,
2013-05-20 14:02:00,83.8,66.5,29.83,SSW,207,4.0,8.7,56,0.00,,SCT120,0.08,VWS V14.01,2013-05-20 19:02:00,
2013-05-20 14:07:00,82.8,65.5,29.83,West,271,3.6,8.3,56,0.00,,SCT120,0.08,VWS V14.01,2013-05-20 19:07:00,
2013-05-20 14:12:00,81.7,66.2,29.83,SE,145,5.4,8.3,60,0.00,,SCT120,0.08,VWS V14.01,2013-05-20 19:12:00,
2013-05-20 14:17:00,81.3,65.9,29.86,ESE,116,6.3,8.1,60,0.00,,SCT120,0.08,VWS V14.01,2013-05-20 19:17:00,
2013-05-20 14:22:00,81.1,65.7,29.86,SW,218,7.6,8.3,60,0.00,,BKN100,0.08,VWS V14.01,2013-05-20 19:22:00,
2013-05-20 14:27:00,80.8,65.4,29.86,SSW,192,5.4,12.3,60,0.00,,BKN100,0.08,VWS V14.01,2013-05-20 19:27:00,
2013-05-20 14:32:00,80.1,64.7,29.83,NW,306,3.6,8.7,60,0.00,,BKN100,0.08,VWS V14.01,2013-05-20 19:32:00,
2013-05-20 14:37:00,79.3,64.0,29.83,ESE,120,6.3,7.6,60,0.00,,BKN100,0.08,VWS V14.01,2013-05-20 19:37:00,
2013-05-20 14:42:00,79.0,63.7,29.83,South,191,3.1,8.3,60,0.00,,SCT085,0.08,VWS V14.01,2013-05-20 19:42:00,
2013-05-20 14:48:00,79.2,63.8,29.80,West,274,0.0,4.9,60,0.00,,SCT085,0.08,VWS V14.01,2013-05-20 19:48:00,
2013-05-20 14:53:00,80.1,64.7,29.80,SSE,163,2.2,3.6,60,0.00,,SCT085,0.08,VWS V14.01,2013-05-20 19:53:00,
2013-05-20 14:58:00,81.1,65.7,29.80,South,185,3.1,5.8,60,0.00,,SCT085,0.08,VWS V14.01,2013-05-20 19:58:00,
2013-05-20 15:03:00,82.2,66.7,29.80,South,190,6.3,8.3,60,0.00,,CLR,0.08,VWS V14.01,2013-05-20 20:03:00,
2013-05-20 15:08:00,82.8,65.5,29.80,SE,140,8.1,9.6,56,0.00,,CLR,0.08,VWS V14.01,2013-05-20 20:08:00,
2013-05-20 15:13:00,82.9,65.7,29.80,SSW,212,10.1,10.1,56,0.00,,CLR,0.08,VWS V14.01,2013-05-20 20:13:00,
2013-05-20 15:18:00,82.8,65.5,29.80,SSW,208,3.6,7.6,56,0.00,,CLR,0.08,VWS V14.01,2013-05-20 20:18:00,
2013-05-20 15:23:00,82.4,65.1,29.80,South,182,7.6,11.4,56,0.00,,CLR,0.08,VWS V14.01,2013-05-20 20:23:00,
2013-05-20 15:28:00,82.2,66.7,29.80,SE,128,6.3,11.0,60,0.00,,CLR,0.08,VWS V14.01,2013-05-20 20:28:00,
2013-05-20 15:33:00,81.9,66.4,29.80,SSW,199,8.3,10.1,60,0.00,,CLR,0.08,VWS V14.01,2013-05-20 20:33:00,
2013-05-20 15:38:00,81.5,66.1,29.80,SSW,196,8.1,10.5,60,0.00,,CLR,0.08,VWS V14.01,2013-05-20 20:38:00,
2013-05-20 15:43:00,81.3,65.9,29.80,SSE,150,5.4,8.7,60,0.00,,CLR,0.08,VWS V14.01,2013-05-20 20:43:00,
2013-05-20 15:48:00,81.5,66.1,29.78,SE,140,5.8,10.1,60,0.00,,CLR,0.08,VWS V14.01,2013-05-20 20:48:00,
2013-05-20 15:53:00,81.7,66.2,29.78,South,189,3.1,9.6,60,0.00,,CLR,0.08,VWS V14.01,2013-05-20 20:53:00,
2013-05-20 15:59:00,82.0,66.6,29.78,West,275,5.8,13.2,60,0.00,,CLR,0.08,VWS V14.01,2013-05-20 20:59:00,
2013-05-20 16:04:00,82.6,65.3,29.78,SSW,192,6.3,8.1,56,0.00,,CLR,0.08,VWS V14.01,2013-05-20 21:04:00,
2013-05-20 16:09:00,82.6,65.3,29.78,SE,145,5.4,8.3,56,0.00,,CLR,0.08,VWS V14.01,2013-05-20 21:09:00,
2013-05-20 16:14:00,83.1,65.8,29.78,SSE,162,3.1,11.9,56,0.00,,CLR,0.08,VWS V14.01,2013-05-20 21:14:00,
2013-05-20 16:19:00,83.7,66.3,29.78,SSW,210,7.6,12.8,56,0.00,,CLR,0.08,VWS V14.01,2013-05-20 21:19:00,
2013-05-20 16:24:00,83.7,66.3,29.78,West,278,4.0,11.4,56,0.00,,CLR,0.08,VWS V14.01,2013-05-20 21:24:00,
2013-05-20 16:29:00,83.8,66.5,29.78,SW,227,8.7,10.5,56,0.00,,CLR,0.08,VWS V14.01,2013-05-20 21:29:00,
2013-05-20 16:34:00,84.2,66.8,29.78,WSW,237,5.4,8.3,56,0.00,,CLR,0.08,VWS V14.01,2013-05-20 21:34:00,
2013-05-20 16:39:00,84.6,67.2,29.78,SSW,207,5.4,10.5,56,0.00,,CLR,0.08,VWS V14.01,2013-05-20 21:39:00,
2013-05-20 16:44:00,84.4,67.0,29.78,SSW,207,10.1,10.1,56,0.00,,CLR,0.08,VWS V14.01,2013-05-20 21:44:00,
2013-05-20 16:50:00,84.6,67.2,29.78,South,173,5.4,12.3,56,0.00,,CLR,0.08,VWS V14.01,2013-05-20 21:50:00,
2013-05-20 16:55:00,84.7,67.3,29.78,SSW,199,6.3,12.3,56,0.00,,CLR,0.08,VWS V14.01,2013-05-20 21:55:00,
2013-05-20 17:00:00,84.9,67.5,29.78,SE,146,3.1,10.1,56,0.00,,CLR,0.08,VWS V14.01,2013-05-20 22:00:00,
2013-05-20 17:05:00,85.1,67.7,29.78,SW,229,10.5,10.5,56,0.00,,CLR,0.08,VWS V14.01,2013-05-20 22:05:00,
2013-05-20 17:10:00,84.7,67.3,29.78,SSE,153,8.1,9.2,56,0.00,,CLR,0.08,VWS V14.01,2013-05-20 22:10:00,
2013-05-20 17:15:00,84.6,67.2,29.78,SSW,201,3.6,8.1,56,0.00,,CLR,0.08,VWS V14.01,2013-05-20 22:15:00,
2013-05-20 17:20:00,84.9,67.5,29.78,SSW,204,8.1,8.1,56,0.00,,CLR,0.08,VWS V14.01,2013-05-20 22:20:00,
2013-05-20 17:25:00,85.5,68.0,29.78,South,186,6.3,6.3,56,0.00,,BKN060,0.08,VWS V14.01,2013-05-20 22:25:00,
2013-05-20 17:30:00,85.3,67.8,29.78,SE,142,0.0,4.9,56,0.00,,BKN060,0.08,VWS V14.01,2013-05-20 22:30:00,
2013-05-20 17:35:00,84.9,67.5,29.78,SSW,203,8.1,10.1,56,0.00,,BKN060,0.08,VWS V14.01,2013-05-20 22:35:00,
2013-05-20 17:40:00,84.9,67.5,29.78,South,177,5.8,6.3,56,0.00,,BKN060,0.08,VWS V14.01,2013-05-20 22:40:00,
2013-05-20 17:45:00,85.1,67.7,29.78,WSW,243,5.8,5.8,56,0.00,,SCT060,0.08,VWS V14.01,2013-05-20 22:45:00,
2013-05-20 17:50:00,85.1,67.7,29.78,South,191,4.9,5.4,56,0.00,,SCT060,0.08,VWS V14.01,2013-05-20 22:50:00,
2013-05-20 17:55:00,85.1,67.7,29.78,SW,230,2.7,5.4,56,0.00,,SCT060,0.08,VWS V14.01,2013-05-20 22:55:00,
2013-05-20 18:00:00,85.1,67.7,29.78,South,177,0.0,5.4,56,0.00,,SCT060,0.08,VWS V14.01,2013-05-20 23:00:00,
2013-05-20 18:06:00,85.3,67.8,29.78,SSW,206,3.1,4.9,56,0.00,,SCT065,0.08,VWS V14.01,2013-05-20 23:06:00,
2013-05-20 18:11:00,85.3,67.8,29.78,SSW,203,7.6,7.6,56,0.00,,SCT065,0.08,VWS V14.01,2013-05-20 23:11:00,
2013-05-20 18:16:00,85.1,67.7,29.75,SW,216,5.8,5.8,56,0.00,,SCT065,0.08,VWS V14.01,2013-05-20 23:16:00,
2013-05-20 18:21:00,84.9,67.5,29.75,ESE,117,4.9,4.9,56,0.00,,SCT065,0.08,VWS V14.01,2013-05-20 23:21:00,
2013-05-20 18:26:00,84.7,67.3,29.75,South,183,4.9,4.9,56,0.00,,SCT049,0.08,VWS V14.01,2013-05-20 23:26:00,
2013-05-20 18:31:00,84.7,67.3,29.75,SSE,168,5.8,8.3,56,0.00,,SCT049,0.08,VWS V14.01,2013-05-20 23:31:00,
2013-05-20 18:36:00,84.2,66.8,29.75,South,180,3.6,5.8,56,0.00,,SCT049,0.08,VWS V14.01,2013-05-20 23:36:00,
2013-05-20 18:41:00,84.0,66.7,29.75,WSW,243,2.7,3.6,56,0.00,,SCT049,0.08,VWS V14.01,2013-05-20 23:41:00,
2013-05-20 18:46:00,84.0,66.7,29.75,SE,141,2.7,8.1,56,0.00,,SCT049,0.08,VWS V14.01,2013-05-20 23:46:00,
2013-05-20 18:51:00,83.8,66.5,29.75,WSW,252,3.1,5.8,56,0.00,,SCT049,0.08,VWS V14.01,2013-05-20 23:51:00,
2013-05-20 18:56:00,83.3,66.0,29.75,SE,126,2.7,4.9,56,0.00,,SCT049,0.08,VWS V14.01,2013-05-20 23:56:00,
2013-05-20 19:01:00,82.8,65.5,29.75,SSE,160,3.6,5.8,56,0.00,,SCT049,0.08,VWS V14.01,2013-05-21 00:01:00,
2013-05-20 19:06:00,82.4,65.1,29.75,SSE,155,4.0,4.5,56,0.00,,SCT060,0.08,VWS V14.01,2013-05-21 00:06:00,
2013-05-20 19:12:00,82.0,66.6,29.75,South,177,3.1,4.0,60,0.00,,SCT060,0.08,VWS V14.01,2013-05-21 00:12:00,
2013-05-20 19:17:00,81.9,66.4,29.72,SSW,198,2.7,5.8,60,0.00,,SCT060,0.08,VWS V14.01,2013-05-21 00:17:00,
2013-05-20 19:22:00,81.5,66.1,29.72,South,175,2.7,6.3,60,0.00,,OVC060,0.08,VWS V14.01,2013-05-21 00:22:00,
2013-05-20 19:27:00,81.5,66.1,29.72,SE,144,3.6,5.4,60,0.00,,OVC060,0.08,VWS V14.01,2013-05-21 00:27:00,
2013-05-20 19:32:00,81.1,65.7,29.72,South,173,5.4,8.7,60,0.00,,OVC060,0.08,VWS V14.01,2013-05-21 00:32:00,
2013-05-20 19:37:00,81.0,65.5,29.72,SSW,201,6.3,10.5,60,0.00,,OVC060,0.08,VWS V14.01,2013-05-21 00:37:00,
2013-05-20 19:42:00,80.8,65.4,29.72,SSW,197,6.3,9.2,60,0.00,,OVC044,0.08,VWS V14.01,2013-05-21 00:42:00,
2013-05-20 19:47:00,79.7,64.4,29.75,SW,216,11.0,11.0,60,0.00,,OVC044,0.08,VWS V14.01,2013-05-21 00:47:00,
2013-05-20 19:52:00,73.9,60.6,29.75,SW,225,15.4,17.0,63,0.31,,OVC044,0.39,VWS V14.01,2013-05-21 00:52:00,
2013-05-20 19:57:00,69.1,58.9,29.75,ESE,121,4.9,6.3,70,0.59,,OVC044,0.67,VWS V14.01,2013-05-21 00:57:00,
2013-05-20 20:02:00,66.9,56.8,29.72,SSW,211,2.2,6.3,70,0.63,,OVC050,0.71,VWS V14.01,2013-05-21 01:02:00,
2013-05-20 20:08:00,65.8,59.7,29.72,SSE,154,0.0,0.0,80,0.63,,OVC050,0.71,VWS V14.01,2013-05-21 01:08:00,
2013-05-20 20:13:00,65.5,59.3,29.72,SSE,153,0.0,0.0,80,0.63,,OVC050,0.71,VWS V14.01,2013-05-21 01:13:00,
2013-05-20 20:18:00,65.3,59.2,29.75,SE,143,0.0,0.0,80,0.63,,OVC050,0.71,VWS V14.01,2013-05-21 01:18:00,
2013-05-20 20:23:00,65.1,59.0,29.75,South,169,0.0,0.0,80,0.63,,OVC048,0.71,VWS V14.01,2013-05-21 01:23:00,
2013-05-20 20:28:00,65.3,60.3,29.75,SW,218,0.0,0.0,84,0.63,,OVC048,0.71,VWS V14.01,2013-05-21 01:28:00,
2013-05-20 20:33:00,65.5,60.5,29.75,SSE,164,0.0,0.0,84,0.63,,OVC048,0.71,VWS V14.01,2013-05-21 01:33:00,
2013-05-20 20:38:00,65.7,61.8,29.75,South,190,0.0,0.0,88,0.63,,OVC048,0.71,VWS V14.01,2013-05-21 01:38:00,
2013-05-20 20:43:00,65.8,62.0,29.75,SW,225,0.0,0.0,88,0.67,,OVC090,0.75,VWS V14.01,2013-05-21 01:43:00,
2013-05-20 20:48:00,66.0,63.3,29.75,SSE,161,0.0,0.0,91,0.67,,OVC090,0.75,VWS V14.01,2013-05-21 01:48:00,
2013-05-20 20:53:00,66.2,63.5,29.75,SSW,213,0.0,0.0,91,0.59,,OVC090,0.79,VWS V14.01,2013-05-21 01:53:00,
2013-05-20 20:58:00,66.4,63.7,29.75,SSW,213,0.0,0.0,91,0.28,,OVC090,0.83,VWS V14.01,2013-05-21 01:58:00,
2013-05-20 21:03:00,66.6,64.9,29.75,SSW,193,0.0,0.0,94,0.20,,BKN085,0.87,VWS V14.01,2013-05-21 02:03:00,
2013-05-20 21:08:00,66.9,66.3,29.75,South,181,0.0,3.6,98,0.16,,BKN085,0.87,VWS V14.01,2013-05-21 02:08:00,
2013-05-20 21:14:00,67.3,67.3,29.75,South,177,0.0,0.0,100,0.16,,BKN085,0.87,VWS V14.01,2013-05-21 02:14:00,
2013-05-20 21:19:00,67.6,67.6,29.75,WNW,297,0.0,0.0,100,0.20,,BKN085,0.91,VWS V14.01,2013-05-21 02:19:00,
2013-05-20 21:24:00,68.2,68.2,29.75,South,173,3.6,4.0,100,0.20,,BKN070,0.91,VWS V14.01,2013-05-21 02:24:00,
2013-05-20 21:29:00,68.7,68.7,29.75,SSW,203,2.7,5.4,100,0.20,,BKN070,0.91,VWS V14.01,2013-05-21 02:29:00,
2013-05-20 21:34:00,68.9,68.9,29.80,West,259,6.3,6.3,100,0.20,,BKN070,0.91,VWS V14.01,2013-05-21 02:34:00,
2013-05-20 21:39:00,67.3,67.3,29.80,WSW,258,7.6,10.5,100,0.28,,BKN070,0.98,VWS V14.01,2013-05-21 02:39:00,
2013-05-20 21:44:00,65.7,65.7,29.80,SW,235,4.9,11.0,100,0.51,,OVC050,1.22,VWS V14.01,2013-05-21 02:44:00,
2013-05-20 21:49:00,64.8,64.8,29.86,SW,224,4.9,7.6,100,0.51,,OVC050,1.26,VWS V14.01,2013-05-21 02:49:00,
2013-05-20 21:54:00,64.2,64.2,29.86,WNW,298,4.0,11.0,100,0.51,,OVC050,1.26,VWS V14.01,2013-05-21 02:54:00,
2013-05-20 21:59:00,63.9,63.9,29.83,ENE,76,3.1,8.3,100,0.47,,OVC050,1.26,VWS V14.01,2013-05-21 02:59:00,
2013-05-20 22:04:00,63.9,63.9,29.83,North,353,2.2,5.4,100,0.47,,OVC039,1.30,VWS V14.01,2013-05-21 03:04:00,
2013-05-20 22:10:00,63.7,63.7,29.83,SW,218,0.0,4.5,100,0.47,,OVC039,1.34,VWS V14.01,2013-05-21 03:10:00,
2013-05-20 22:15:00,63.9,63.9,29.80,WSW,242,2.7,4.0,100,0.51,,OVC039,1.38,VWS V14.01,2013-05-21 03:15:00,
2013-05-20 22:20:00,63.7,63.7,29.80,SSW,193,0.0,0.0,100,0.51,,OVC039,1.42,VWS V14.01,2013-05-21 03:20:00,
2013-05-20 22:25:00,63.5,63.5,29.80,South,169,0.0,0.0,100,0.51,,OVC070,1.42,VWS V14.01,2013-05-21 03:25:00,
2013-05-20 22:30:00,63.5,63.5,29.80,South,169,0.0,0.0,100,0.55,,OVC070,1.46,VWS V14.01,2013-05-21 03:30:00,
2013-05-20 22:35:00,63.9,63.9,29.80,SE,135,0.0,0.0,100,0.55,,OVC070,1.46,VWS V14.01,2013-05-21 03:35:00,
2013-05-20 22:40:00,63.7,63.7,29.80,SE,124,0.0,0.0,100,0.43,,OVC050,1.46,VWS V14.01,2013-05-21 03:40:00,
2013-05-20 22:46:00,63.7,63.7,29.75,SE,124,0.0,0.0,100,0.24,,OVC050,1.46,VWS V14.01,2013-05-21 03:46:00,
2013-05-20 22:51:00,63.9,63.9,29.75,SSW,193,0.0,0.0,100,0.20,,OVC050,1.46,VWS V14.01,2013-05-21 03:51:00,
2013-05-20 22:56:00,63.9,63.9,29.75,SSE,165,2.2,2.7,100,0.20,,OVC050,1.46,VWS V14.01,2013-05-21 03:56:00,
2013-05-20 23:01:00,63.9,63.9,29.75,SE,125,4.0,4.0,100,0.20,,OVC050,1.46,VWS V14.01,2013-05-21 04:01:00,
2013-05-20 23:02:00,63.9,63.9,29.75,SE,129,3.6,4.0,100,0.20,,OVC047,1.46,VWS V14.01,2013-05-21 04:02:00,
2013-05-20 23:08:00,64.0,64.0,29.75,SE,143,3.1,5.4,100,0.16,,OVC047,1.46,VWS V14.01,2013-05-21 04:08:00,
2013-05-20 23:13:00,64.2,64.2,29.75,SSW,195,4.9,5.4,100,0.12,,OVC047,1.46,VWS V14.01,2013-05-21 04:13:00,
2013-05-20 23:18:00,64.0,64.0,29.75,SSE,152,4.9,4.9,100,0.08,,OVC047,1.46,VWS V14.01,2013-05-21 04:18:00,
2013-05-20 23:23:00,64.0,64.0,29.75,SW,217,2.7,5.4,100,0.04,,OVC050,1.46,VWS V14.01,2013-05-21 04:23:00,
2013-05-20 23:28:00,64.0,64.0,29.75,SSW,201,3.1,6.3,100,0.04,,OVC050,1.46,VWS V14.01,2013-05-21 04:28:00,
2013-05-20 23:33:00,64.2,64.2,29.78,SSW,193,5.8,5.8,100,0.00,,OVC050,1.46,VWS V14.01,2013-05-21 04:33:00,
2013-05-20 23:38:00,64.6,64.6,29.78,SSE,149,8.1,10.1,100,0.00,,OVC050,1.46,VWS V14.01,2013-05-21 04:38:00,
2013-05-20 23:43:00,64.8,64.8,29.78,SSE,147,4.0,8.7,100,0.04,,OVC049,1.50,VWS V14.01,2013-05-21 04:43:00,
2013-05-20 23:48:00,64.9,64.9,29.78,SSW,204,5.4,8.1,100,0.04,,OVC049,1.50,VWS V14.01,2013-05-21 04:48:00,
2013-05-20 23:53:00,64.9,64.9,29.78,South,185,4.0,6.3,100,0.04,,OVC049,1.50,VWS V14.01,2013-05-21 04:53:00,
2013-05-20 23:59:00,64.9,64.9,29.78,SSW,203,3.6,7.6,100,0.04,,OVC049,1.50,VWS V14.01,2013-05-21 04:59:00,